sensor_id;sensor_type;location;lat;lon;timestamp;temperature;humidity
35970;DHT22;22448;51.298;6.430;2023-06-04T00:02:19;13.00;87.00
35970;DHT22;22448;51.298;6.430;2023-06-04T00:04:47;12.90;87.60
35970;DHT22;22448;51.298;6.430;2023-06-04T00:07:14;12.90;87.50
35970;DHT22;22448;51.298;6.430;2023-06-04T00:09:41;12.80;87.80
35970;DHT22;22448;51.298;6.430;2023-06-04T00:12:08;12.80;88.20
35970;DHT22;22448;51.298;6.430;2023-06-04T00:14:35;12.80;88.40
35970;DHT22;22448;51.298;6.430;2023-06-04T00:17:02;12.70;88.70
35970;DHT22;22448;51.298;6.430;2023-06-04T00:19:29;12.70;89.00
35970;DHT22;22448;51.298;6.430;2023-06-04T00:21:56;12.60;89.60
35970;DHT22;22448;51.298;6.430;2023-06-04T00:24:23;12.60;89.20
35970;DHT22;22448;51.298;6.430;2023-06-04T00:26:50;12.50;89.50
35970;DHT22;22448;51.298;6.430;2023-06-04T00:29:18;12.50;89.80
35970;DHT22;22448;51.298;6.430;2023-06-04T00:31:45;12.40;90.10
35970;DHT22;22448;51.298;6.430;2023-06-04T00:34:12;12.30;90.20
35970;DHT22;22448;51.298;6.430;2023-06-04T00:36:39;12.30;90.50
35970;DHT22;22448;51.298;6.430;2023-06-04T00:39:07;12.30;90.60
35970;DHT22;22448;51.298;6.430;2023-06-04T00:41:34;12.20;90.70
35970;DHT22;22448;51.298;6.430;2023-06-04T00:44:01;12.20;90.80
35970;DHT22;22448;51.298;6.430;2023-06-04T00:46:28;12.10;91.00
35970;DHT22;22448;51.298;6.430;2023-06-04T00:48:56;12.10;91.10
35970;DHT22;22448;51.298;6.430;2023-06-04T00:51:23;12.10;91.10
35970;DHT22;22448;51.298;6.430;2023-06-04T00:53:51;12.10;91.20
35970;DHT22;22448;51.298;6.430;2023-06-04T00:56:19;12.00;91.30
35970;DHT22;22448;51.298;6.430;2023-06-04T00:58:46;12.00;91.40
35970;DHT22;22448;51.298;6.430;2023-06-04T01:03:58;12.00;91.90
35970;DHT22;22448;51.298;6.430;2023-06-04T01:06:39;11.90;92.00
35970;DHT22;22448;51.298;6.430;2023-06-04T01:09:10;11.90;92.30
35970;DHT22;22448;51.298;6.430;2023-06-04T01:11:38;11.80;92.50
35970;DHT22;22448;51.298;6.430;2023-06-04T01:14:07;11.80;92.80
35970;DHT22;22448;51.298;6.430;2023-06-04T01:16:47;11.80;93.10
35970;DHT22;22448;51.298;6.430;2023-06-04T01:25:13;11.70;94.10
35970;DHT22;22448;51.298;6.430;2023-06-04T01:27:51;11.60;94.30
35970;DHT22;22448;51.298;6.430;2023-06-04T01:30:25;11.60;94.70
35970;DHT22;22448;51.298;6.430;2023-06-04T01:32:54;11.50;94.90
35970;DHT22;22448;51.298;6.430;2023-06-04T01:35:22;11.50;95.30
35970;DHT22;22448;51.298;6.430;2023-06-04T01:37:52;11.50;95.80
35970;DHT22;22448;51.298;6.430;2023-06-04T01:40:20;11.50;96.10
35970;DHT22;22448;51.298;6.430;2023-06-04T01:42:47;11.40;96.50
35970;DHT22;22448;51.298;6.430;2023-06-04T01:45:14;11.30;96.80
35970;DHT22;22448;51.298;6.430;2023-06-04T01:47:41;11.30;97.20
35970;DHT22;22448;51.298;6.430;2023-06-04T01:50:09;11.20;97.70
35970;DHT22;22448;51.298;6.430;2023-06-04T01:52:37;11.20;98.00
35970;DHT22;22448;51.298;6.430;2023-06-04T01:55:09;11.20;98.30
35970;DHT22;22448;51.298;6.430;2023-06-04T01:57:39;11.10;98.60
35970;DHT22;22448;51.298;6.430;2023-06-04T02:00:08;11.10;99.10
35970;DHT22;22448;51.298;6.430;2023-06-04T02:02:41;11.10;99.60
35970;DHT22;22448;51.298;6.430;2023-06-04T02:05:09;11.10;99.90
35970;DHT22;22448;51.298;6.430;2023-06-04T02:07:38;11.00;99.90
35970;DHT22;22448;51.298;6.430;2023-06-04T02:10:07;11.00;99.90
35970;DHT22;22448;51.298;6.430;2023-06-04T02:12:37;11.00;99.90
35970;DHT22;22448;51.298;6.430;2023-06-04T02:15:05;10.90;99.90
35970;DHT22;22448;51.298;6.430;2023-06-04T02:17:33;10.90;99.90
35970;DHT22;22448;51.298;6.430;2023-06-04T02:20:04;10.90;99.90
35970;DHT22;22448;51.298;6.430;2023-06-04T02:22:32;10.80;99.90
35970;DHT22;22448;51.298;6.430;2023-06-04T02:24:59;10.80;99.90
35970;DHT22;22448;51.298;6.430;2023-06-04T02:27:27;10.80;99.90
35970;DHT22;22448;51.298;6.430;2023-06-04T02:29:55;10.70;99.90
35970;DHT22;22448;51.298;6.430;2023-06-04T02:32:22;10.70;99.90
35970;DHT22;22448;51.298;6.430;2023-06-04T02:34:49;10.70;99.90
35970;DHT22;22448;51.298;6.430;2023-06-04T02:37:16;10.70;99.90
35970;DHT22;22448;51.298;6.430;2023-06-04T02:39:43;10.70;99.90
35970;DHT22;22448;51.298;6.430;2023-06-04T02:42:10;10.70;99.90
35970;DHT22;22448;51.298;6.430;2023-06-04T02:44:37;10.60;99.90
35970;DHT22;22448;51.298;6.430;2023-06-04T02:47:04;10.60;99.90
35970;DHT22;22448;51.298;6.430;2023-06-04T02:49:31;10.60;99.90
35970;DHT22;22448;51.298;6.430;2023-06-04T02:51:58;10.60;99.90
35970;DHT22;22448;51.298;6.430;2023-06-04T02:54:26;10.50;99.90
35970;DHT22;22448;51.298;6.430;2023-06-04T02:56:53;10.50;99.90
35970;DHT22;22448;51.298;6.430;2023-06-04T02:59:20;10.50;99.90
35970;DHT22;22448;51.298;6.430;2023-06-04T03:01:47;10.50;99.90
35970;DHT22;22448;51.298;6.430;2023-06-04T03:04:15;10.50;99.90
35970;DHT22;22448;51.298;6.430;2023-06-04T03:06:42;10.50;99.90
35970;DHT22;22448;51.298;6.430;2023-06-04T03:09:13;10.50;99.90
35970;DHT22;22448;51.298;6.430;2023-06-04T03:11:40;10.40;99.90
35970;DHT22;22448;51.298;6.430;2023-06-04T03:14:08;10.50;99.90
35970;DHT22;22448;51.298;6.430;2023-06-04T03:16:35;10.50;99.90
35970;DHT22;22448;51.298;6.430;2023-06-04T03:19:06;10.40;99.90
35970;DHT22;22448;51.298;6.430;2023-06-04T03:21:35;10.40;99.90
35970;DHT22;22448;51.298;6.430;2023-06-04T03:24:02;10.40;99.90
35970;DHT22;22448;51.298;6.430;2023-06-04T03:26:29;10.40;99.90
35970;DHT22;22448;51.298;6.430;2023-06-04T03:28:56;10.40;99.90
35970;DHT22;22448;51.298;6.430;2023-06-04T03:31:24;10.30;99.90
35970;DHT22;22448;51.298;6.430;2023-06-04T03:33:52;10.40;99.90
35970;DHT22;22448;51.298;6.430;2023-06-04T03:36:19;10.40;99.90
35970;DHT22;22448;51.298;6.430;2023-06-04T03:38:46;10.40;99.90
35970;DHT22;22448;51.298;6.430;2023-06-04T03:41:14;10.40;99.90
35970;DHT22;22448;51.298;6.430;2023-06-04T03:43:42;10.30;99.90
35970;DHT22;22448;51.298;6.430;2023-06-04T03:46:10;10.40;99.90
35970;DHT22;22448;51.298;6.430;2023-06-04T03:48:37;10.30;99.90
35970;DHT22;22448;51.298;6.430;2023-06-04T03:51:04;10.40;99.90
35970;DHT22;22448;51.298;6.430;2023-06-04T03:53:33;10.40;99.90
35970;DHT22;22448;51.298;6.430;2023-06-04T03:56:01;10.40;99.90
35970;DHT22;22448;51.298;6.430;2023-06-04T03:58:29;10.40;99.90
35970;DHT22;22448;51.298;6.430;2023-06-04T04:00:57;10.40;99.90
35970;DHT22;22448;51.298;6.430;2023-06-04T04:03:24;10.40;99.90
35970;DHT22;22448;51.298;6.430;2023-06-04T04:05:52;10.40;99.90
35970;DHT22;22448;51.298;6.430;2023-06-04T04:08:19;10.50;99.90
35970;DHT22;22448;51.298;6.430;2023-06-04T04:10:48;10.50;99.90
35970;DHT22;22448;51.298;6.430;2023-06-04T04:13:15;10.50;99.90
35970;DHT22;22448;51.298;6.430;2023-06-04T04:15:42;10.50;99.90
35970;DHT22;22448;51.298;6.430;2023-06-04T04:18:10;10.60;99.90
35970;DHT22;22448;51.298;6.430;2023-06-04T04:20:39;10.60;99.90
35970;DHT22;22448;51.298;6.430;2023-06-04T04:23:09;10.60;99.90
35970;DHT22;22448;51.298;6.430;2023-06-04T04:25:39;10.60;99.90
35970;DHT22;22448;51.298;6.430;2023-06-04T04:28:07;10.60;99.90
35970;DHT22;22448;51.298;6.430;2023-06-04T04:30:36;10.70;99.90
35970;DHT22;22448;51.298;6.430;2023-06-04T04:33:04;10.70;99.90
35970;DHT22;22448;51.298;6.430;2023-06-04T04:35:44;10.70;99.90
35970;DHT22;22448;51.298;6.430;2023-06-04T04:38:14;10.80;99.90
35970;DHT22;22448;51.298;6.430;2023-06-04T04:40:50;10.90;99.90
35970;DHT22;22448;51.298;6.430;2023-06-04T04:43:29;10.90;99.90
35970;DHT22;22448;51.298;6.430;2023-06-04T04:45:58;11.00;99.90
35970;DHT22;22448;51.298;6.430;2023-06-04T04:48:26;11.10;99.90
35970;DHT22;22448;51.298;6.430;2023-06-04T04:50:53;11.20;99.90
35970;DHT22;22448;51.298;6.430;2023-06-04T04:53:21;11.20;99.90
35970;DHT22;22448;51.298;6.430;2023-06-04T04:55:48;11.40;99.90
35970;DHT22;22448;51.298;6.430;2023-06-04T04:58:16;12.10;99.90
35970;DHT22;22448;51.298;6.430;2023-06-04T05:00:44;14.30;99.90
35970;DHT22;22448;51.298;6.430;2023-06-04T05:03:12;16.40;99.90
35970;DHT22;22448;51.298;6.430;2023-06-04T05:05:39;17.80;99.90
35970;DHT22;22448;51.298;6.430;2023-06-04T05:08:06;18.90;99.50
35970;DHT22;22448;51.298;6.430;2023-06-04T05:10:38;19.80;97.30
35970;DHT22;22448;51.298;6.430;2023-06-04T05:13:06;20.70;95.50
35970;DHT22;22448;51.298;6.430;2023-06-04T05:15:40;21.40;94.20
35970;DHT22;22448;51.298;6.430;2023-06-04T05:18:10;22.20;92.90
35970;DHT22;22448;51.298;6.430;2023-06-04T05:20:38;22.70;92.00
35970;DHT22;22448;51.298;6.430;2023-06-04T05:23:09;22.90;91.00
35970;DHT22;22448;51.298;6.430;2023-06-04T05:25:36;23.40;90.70
35970;DHT22;22448;51.298;6.430;2023-06-04T05:28:04;23.80;89.60
35970;DHT22;22448;51.298;6.430;2023-06-04T05:30:33;24.40;89.00
35970;DHT22;22448;51.298;6.430;2023-06-04T05:33:01;24.60;87.40
35970;DHT22;22448;51.298;6.430;2023-06-04T05:35:29;24.70;86.40
35970;DHT22;22448;51.298;6.430;2023-06-04T05:37:56;24.60;85.70
35970;DHT22;22448;51.298;6.430;2023-06-04T05:40:27;24.30;86.30
35970;DHT22;22448;51.298;6.430;2023-06-04T05:42:54;24.60;86.10
35970;DHT22;22448;51.298;6.430;2023-06-04T05:45:22;24.90;85.10
35970;DHT22;22448;51.298;6.430;2023-06-04T05:47:49;25.40;84.20
35970;DHT22;22448;51.298;6.430;2023-06-04T05:50:16;25.60;83.80
35970;DHT22;22448;51.298;6.430;2023-06-04T05:52:43;25.80;82.60
35970;DHT22;22448;51.298;6.430;2023-06-04T05:55:12;25.90;82.30
35970;DHT22;22448;51.298;6.430;2023-06-04T05:57:38;26.40;81.80
35970;DHT22;22448;51.298;6.430;2023-06-04T06:00:06;27.30;81.50
35970;DHT22;22448;51.298;6.430;2023-06-04T06:02:42;27.50;79.60
35970;DHT22;22448;51.298;6.430;2023-06-04T06:05:24;28.00;79.10
35970;DHT22;22448;51.298;6.430;2023-06-04T06:07:51;27.80;78.30
35970;DHT22;22448;51.298;6.430;2023-06-04T06:10:18;28.10;77.70
35970;DHT22;22448;51.298;6.430;2023-06-04T06:12:45;28.90;77.60
35970;DHT22;22448;51.298;6.430;2023-06-04T06:15:12;28.80;76.40
35970;DHT22;22448;51.298;6.430;2023-06-04T06:17:41;28.60;75.80
35970;DHT22;22448;51.298;6.430;2023-06-04T06:20:09;28.70;75.80
35970;DHT22;22448;51.298;6.430;2023-06-04T06:22:36;28.90;76.00
35970;DHT22;22448;51.298;6.430;2023-06-04T06:25:05;29.60;74.50
35970;DHT22;22448;51.298;6.430;2023-06-04T06:27:38;29.30;74.20
35970;DHT22;22448;51.298;6.430;2023-06-04T06:30:07;29.60;74.00
35970;DHT22;22448;51.298;6.430;2023-06-04T06:32:34;29.80;72.90
35970;DHT22;22448;51.298;6.430;2023-06-04T06:35:01;29.60;71.80
35970;DHT22;22448;51.298;6.430;2023-06-04T06:37:30;29.50;72.30
35970;DHT22;22448;51.298;6.430;2023-06-04T06:39:57;29.00;72.60
35970;DHT22;22448;51.298;6.430;2023-06-04T06:42:24;29.60;73.50
35970;DHT22;22448;51.298;6.430;2023-06-04T06:44:53;30.10;72.50
35970;DHT22;22448;51.298;6.430;2023-06-04T06:47:20;30.00;71.50
35970;DHT22;22448;51.298;6.430;2023-06-04T06:49:47;30.60;71.50
35970;DHT22;22448;51.298;6.430;2023-06-04T06:52:14;31.40;70.80
35970;DHT22;22448;51.298;6.430;2023-06-04T06:54:41;30.90;69.70
35970;DHT22;22448;51.298;6.430;2023-06-04T06:57:08;30.20;69.00
35970;DHT22;22448;51.298;6.430;2023-06-04T06:59:35;30.80;68.90
35970;DHT22;22448;51.298;6.430;2023-06-04T07:02:04;30.80;68.70
35970;DHT22;22448;51.298;6.430;2023-06-04T07:04:32;31.10;68.40
35970;DHT22;22448;51.298;6.430;2023-06-04T07:06:59;31.30;69.50
35970;DHT22;22448;51.298;6.430;2023-06-04T07:09:26;30.70;67.80
35970;DHT22;22448;51.298;6.430;2023-06-04T07:11:53;30.20;66.80
35970;DHT22;22448;51.298;6.430;2023-06-04T07:14:20;30.90;68.50
35970;DHT22;22448;51.298;6.430;2023-06-04T07:16:47;31.20;67.80
35970;DHT22;22448;51.298;6.430;2023-06-04T07:19:14;31.40;66.70
35970;DHT22;22448;51.298;6.430;2023-06-04T07:21:41;31.40;66.50
35970;DHT22;22448;51.298;6.430;2023-06-04T07:24:08;31.10;67.10
35970;DHT22;22448;51.298;6.430;2023-06-04T07:26:35;31.20;66.40
35970;DHT22;22448;51.298;6.430;2023-06-04T07:29:03;31.20;66.40
35970;DHT22;22448;51.298;6.430;2023-06-04T07:31:30;31.20;66.90
35970;DHT22;22448;51.298;6.430;2023-06-04T07:33:57;31.60;66.70
35970;DHT22;22448;51.298;6.430;2023-06-04T07:36:24;31.50;66.40
35970;DHT22;22448;51.298;6.430;2023-06-04T07:38:51;31.10;65.10
35970;DHT22;22448;51.298;6.430;2023-06-04T07:41:18;30.20;65.00
35970;DHT22;22448;51.298;6.430;2023-06-04T07:43:45;30.20;66.00
35970;DHT22;22448;51.298;6.430;2023-06-04T07:46:12;29.60;66.10
35970;DHT22;22448;51.298;6.430;2023-06-04T07:48:40;29.50;65.90
35970;DHT22;22448;51.298;6.430;2023-06-04T07:51:06;29.10;66.70
35970;DHT22;22448;51.298;6.430;2023-06-04T07:53:34;29.10;67.00
35970;DHT22;22448;51.298;6.430;2023-06-04T07:56:02;29.40;67.00
35970;DHT22;22448;51.298;6.430;2023-06-04T07:58:29;29.40;66.50
35970;DHT22;22448;51.298;6.430;2023-06-04T08:00:56;29.50;66.40
35970;DHT22;22448;51.298;6.430;2023-06-04T08:03:23;29.10;65.70
35970;DHT22;22448;51.298;6.430;2023-06-04T08:05:51;28.70;65.60
35970;DHT22;22448;51.298;6.430;2023-06-04T08:08:18;28.50;66.20
35970;DHT22;22448;51.298;6.430;2023-06-04T08:10:45;28.30;67.00
35970;DHT22;22448;51.298;6.430;2023-06-04T08:13:12;28.20;66.50
35970;DHT22;22448;51.298;6.430;2023-06-04T08:15:39;28.10;66.80
35970;DHT22;22448;51.298;6.430;2023-06-04T08:18:06;28.10;66.90
35970;DHT22;22448;51.298;6.430;2023-06-04T08:20:33;28.00;66.90
35970;DHT22;22448;51.298;6.430;2023-06-04T08:23:00;27.50;66.20
35970;DHT22;22448;51.298;6.430;2023-06-04T08:25:28;26.90;67.00
35970;DHT22;22448;51.298;6.430;2023-06-04T08:27:56;26.80;67.50
35970;DHT22;22448;51.298;6.430;2023-06-04T08:30:23;26.80;66.70
35970;DHT22;22448;51.298;6.430;2023-06-04T08:32:52;26.30;67.20
35970;DHT22;22448;51.298;6.430;2023-06-04T08:35:19;26.10;67.10
35970;DHT22;22448;51.298;6.430;2023-06-04T08:37:46;25.80;66.50
35970;DHT22;22448;51.298;6.430;2023-06-04T08:40:13;25.40;67.00
35970;DHT22;22448;51.298;6.430;2023-06-04T08:42:44;25.20;67.80
35970;DHT22;22448;51.298;6.430;2023-06-04T08:45:13;24.90;66.70
35970;DHT22;22448;51.298;6.430;2023-06-04T08:47:44;24.70;67.80
35970;DHT22;22448;51.298;6.430;2023-06-04T08:50:17;24.10;67.00
35970;DHT22;22448;51.298;6.430;2023-06-04T08:52:45;23.90;70.00
35970;DHT22;22448;51.298;6.430;2023-06-04T08:55:13;23.90;69.50
35970;DHT22;22448;51.298;6.430;2023-06-04T08:57:42;23.70;69.00
35970;DHT22;22448;51.298;6.430;2023-06-04T09:00:10;23.60;68.80
35970;DHT22;22448;51.298;6.430;2023-06-04T09:02:37;23.60;68.80
35970;DHT22;22448;51.298;6.430;2023-06-04T09:05:05;23.60;69.20
35970;DHT22;22448;51.298;6.430;2023-06-04T09:07:37;23.60;68.70
35970;DHT22;22448;51.298;6.430;2023-06-04T09:10:07;23.60;69.80
35970;DHT22;22448;51.298;6.430;2023-06-04T09:12:43;23.90;68.10
35970;DHT22;22448;51.298;6.430;2023-06-04T09:15:13;24.10;66.70
35970;DHT22;22448;51.298;6.430;2023-06-04T09:17:40;24.00;66.50
35970;DHT22;22448;51.298;6.430;2023-06-04T09:20:08;24.00;68.30
35970;DHT22;22448;51.298;6.430;2023-06-04T09:22:44;23.80;66.80
35970;DHT22;22448;51.298;6.430;2023-06-04T09:25:20;23.80;66.30
35970;DHT22;22448;51.298;6.430;2023-06-04T09:27:47;23.90;67.20
35970;DHT22;22448;51.298;6.430;2023-06-04T09:30:15;23.90;66.00
35970;DHT22;22448;51.298;6.430;2023-06-04T09:32:43;23.90;66.60
35970;DHT22;22448;51.298;6.430;2023-06-04T09:35:11;23.90;66.20
35970;DHT22;22448;51.298;6.430;2023-06-04T09:37:51;23.70;66.40
35970;DHT22;22448;51.298;6.430;2023-06-04T09:40:18;23.80;65.10
35970;DHT22;22448;51.298;6.430;2023-06-04T09:42:47;23.70;65.80
35970;DHT22;22448;51.298;6.430;2023-06-04T09:45:27;23.60;65.60
35970;DHT22;22448;51.298;6.430;2023-06-04T09:47:55;23.70;65.90
35970;DHT22;22448;51.298;6.430;2023-06-04T09:50:30;24.00;65.90
35970;DHT22;22448;51.298;6.430;2023-06-04T09:52:59;24.20;65.00
35970;DHT22;22448;51.298;6.430;2023-06-04T09:55:26;24.30;65.90
35970;DHT22;22448;51.298;6.430;2023-06-04T09:57:54;24.20;65.80
35970;DHT22;22448;51.298;6.430;2023-06-04T10:00:22;24.30;66.50
35970;DHT22;22448;51.298;6.430;2023-06-04T10:02:56;24.60;66.50
35970;DHT22;22448;51.298;6.430;2023-06-04T10:05:25;24.70;64.10
35970;DHT22;22448;51.298;6.430;2023-06-04T10:07:55;24.50;64.20
35970;DHT22;22448;51.298;6.430;2023-06-04T10:10:26;24.50;66.10
35970;DHT22;22448;51.298;6.430;2023-06-04T10:13:07;24.30;65.10
35970;DHT22;22448;51.298;6.430;2023-06-04T10:15:37;24.40;65.00
35970;DHT22;22448;51.298;6.430;2023-06-04T10:18:05;24.50;66.40
35970;DHT22;22448;51.298;6.430;2023-06-04T10:20:33;24.50;64.50
35970;DHT22;22448;51.298;6.430;2023-06-04T10:23:00;24.40;64.20
35970;DHT22;22448;51.298;6.430;2023-06-04T10:25:28;24.20;63.50
35970;DHT22;22448;51.298;6.430;2023-06-04T10:27:56;24.20;63.80
35970;DHT22;22448;51.298;6.430;2023-06-04T10:30:23;24.50;65.40
35970;DHT22;22448;51.298;6.430;2023-06-04T10:32:50;24.70;65.40
35970;DHT22;22448;51.298;6.430;2023-06-04T10:35:17;24.60;64.00
35970;DHT22;22448;51.298;6.430;2023-06-04T10:37:45;24.50;64.60
35970;DHT22;22448;51.298;6.430;2023-06-04T10:40:14;24.40;64.90
35970;DHT22;22448;51.298;6.430;2023-06-04T10:42:42;24.50;65.20
35970;DHT22;22448;51.298;6.430;2023-06-04T10:45:10;24.70;64.10
35970;DHT22;22448;51.298;6.430;2023-06-04T10:47:37;25.00;64.20
35970;DHT22;22448;51.298;6.430;2023-06-04T10:50:13;24.90;63.80
35970;DHT22;22448;51.298;6.430;2023-06-04T10:52:56;24.90;64.20
35970;DHT22;22448;51.298;6.430;2023-06-04T10:55:30;24.90;63.50
35970;DHT22;22448;51.298;6.430;2023-06-04T10:57:59;24.70;64.50
35970;DHT22;22448;51.298;6.430;2023-06-04T11:00:41;24.60;63.40
35970;DHT22;22448;51.298;6.430;2023-06-04T11:03:12;24.90;63.70
35970;DHT22;22448;51.298;6.430;2023-06-04T11:05:41;25.00;63.20
35970;DHT22;22448;51.298;6.430;2023-06-04T11:08:10;25.10;63.20
35970;DHT22;22448;51.298;6.430;2023-06-04T11:10:40;25.10;63.20
35970;DHT22;22448;51.298;6.430;2023-06-04T11:13:08;25.00;62.40
35970;DHT22;22448;51.298;6.430;2023-06-04T11:15:45;25.10;62.90
35970;DHT22;22448;51.298;6.430;2023-06-04T11:18:16;25.00;61.70
35970;DHT22;22448;51.298;6.430;2023-06-04T11:20:48;25.00;63.20
35970;DHT22;22448;51.298;6.430;2023-06-04T11:23:16;24.90;62.30
35970;DHT22;22448;51.298;6.430;2023-06-04T11:25:44;25.00;62.50
35970;DHT22;22448;51.298;6.430;2023-06-04T11:28:16;25.20;63.10
35970;DHT22;22448;51.298;6.430;2023-06-04T11:33:25;25.40;63.30
35970;DHT22;22448;51.298;6.430;2023-06-04T11:35:52;25.60;64.80
35970;DHT22;22448;51.298;6.430;2023-06-04T11:38:19;25.60;62.00
35970;DHT22;22448;51.298;6.430;2023-06-04T11:40:59;25.10;60.80
35970;DHT22;22448;51.298;6.430;2023-06-04T11:43:28;25.30;60.40
35970;DHT22;22448;51.298;6.430;2023-06-04T11:45:56;25.00;61.30
35970;DHT22;22448;51.298;6.430;2023-06-04T11:48:23;24.90;61.10
35970;DHT22;22448;51.298;6.430;2023-06-04T11:50:51;24.80;61.90
35970;DHT22;22448;51.298;6.430;2023-06-04T11:53:18;25.00;62.40
35970;DHT22;22448;51.298;6.430;2023-06-04T11:55:45;25.30;62.30
35970;DHT22;22448;51.298;6.430;2023-06-04T11:58:12;25.40;60.40
35970;DHT22;22448;51.298;6.430;2023-06-04T12:00:40;25.20;61.30
35970;DHT22;22448;51.298;6.430;2023-06-04T12:03:07;25.10;61.00
35970;DHT22;22448;51.298;6.430;2023-06-04T12:05:34;24.90;61.10
35970;DHT22;22448;51.298;6.430;2023-06-04T12:08:20;25.00;61.80
35970;DHT22;22448;51.298;6.430;2023-06-04T12:10:47;24.90;62.50
35970;DHT22;22448;51.298;6.430;2023-06-04T12:13:14;25.00;63.20
35970;DHT22;22448;51.298;6.430;2023-06-04T12:15:42;25.10;62.70
35970;DHT22;22448;51.298;6.430;2023-06-04T12:18:09;25.20;61.20
35970;DHT22;22448;51.298;6.430;2023-06-04T12:20:38;25.40;61.00
35970;DHT22;22448;51.298;6.430;2023-06-04T12:23:06;25.50;62.80
35970;DHT22;22448;51.298;6.430;2023-06-04T12:25:35;25.40;61.10
35970;DHT22;22448;51.298;6.430;2023-06-04T12:28:05;25.20;61.60
35970;DHT22;22448;51.298;6.430;2023-06-04T12:30:39;25.10;62.30
35970;DHT22;22448;51.298;6.430;2023-06-04T12:33:07;25.10;62.50
35970;DHT22;22448;51.298;6.430;2023-06-04T12:35:34;25.30;62.40
35970;DHT22;22448;51.298;6.430;2023-06-04T12:38:03;25.40;62.10
35970;DHT22;22448;51.298;6.430;2023-06-04T12:40:31;25.40;62.40
35970;DHT22;22448;51.298;6.430;2023-06-04T12:42:58;25.40;60.80
35970;DHT22;22448;51.298;6.430;2023-06-04T12:45:25;25.50;60.80
35970;DHT22;22448;51.298;6.430;2023-06-04T12:47:52;25.60;60.60
35970;DHT22;22448;51.298;6.430;2023-06-04T12:50:19;25.80;59.80
35970;DHT22;22448;51.298;6.430;2023-06-04T12:52:48;25.70;60.20
35970;DHT22;22448;51.298;6.430;2023-06-04T12:55:16;25.70;60.60
35970;DHT22;22448;51.298;6.430;2023-06-04T12:57:44;25.70;60.80
35970;DHT22;22448;51.298;6.430;2023-06-04T13:00:12;25.60;59.90
35970;DHT22;22448;51.298;6.430;2023-06-04T13:02:39;25.30;60.80
35970;DHT22;22448;51.298;6.430;2023-06-04T13:05:06;25.20;60.90
35970;DHT22;22448;51.298;6.430;2023-06-04T13:07:34;25.30;60.50
35970;DHT22;22448;51.298;6.430;2023-06-04T13:10:01;25.50;58.80
35970;DHT22;22448;51.298;6.430;2023-06-04T13:12:28;25.50;59.50
35970;DHT22;22448;51.298;6.430;2023-06-04T13:14:55;25.70;58.70
35970;DHT22;22448;51.298;6.430;2023-06-04T13:17:25;25.80;60.30
35970;DHT22;22448;51.298;6.430;2023-06-04T13:19:52;25.80;61.50
35970;DHT22;22448;51.298;6.430;2023-06-04T13:22:19;25.80;60.80
35970;DHT22;22448;51.298;6.430;2023-06-04T13:24:46;25.80;60.30
35970;DHT22;22448;51.298;6.430;2023-06-04T13:27:13;25.70;60.00
35970;DHT22;22448;51.298;6.430;2023-06-04T13:29:40;25.50;61.20
35970;DHT22;22448;51.298;6.430;2023-06-04T13:32:10;25.60;61.30
35970;DHT22;22448;51.298;6.430;2023-06-04T13:34:38;25.60;60.50
35970;DHT22;22448;51.298;6.430;2023-06-04T13:37:05;25.80;60.40
35970;DHT22;22448;51.298;6.430;2023-06-04T13:39:33;25.60;59.70
35970;DHT22;22448;51.298;6.430;2023-06-04T13:42:00;25.30;59.40
35970;DHT22;22448;51.298;6.430;2023-06-04T13:44:27;25.30;60.40
35970;DHT22;22448;51.298;6.430;2023-06-04T13:46:57;25.30;59.20
35970;DHT22;22448;51.298;6.430;2023-06-04T13:49:24;25.30;61.30
35970;DHT22;22448;51.298;6.430;2023-06-04T13:51:51;25.50;60.20
35970;DHT22;22448;51.298;6.430;2023-06-04T13:54:18;25.40;60.50
35970;DHT22;22448;51.298;6.430;2023-06-04T13:56:45;25.50;60.60
35970;DHT22;22448;51.298;6.430;2023-06-04T13:59:12;25.50;61.00
35970;DHT22;22448;51.298;6.430;2023-06-04T14:01:40;25.50;59.90
35970;DHT22;22448;51.298;6.430;2023-06-04T14:04:07;25.50;60.00
35970;DHT22;22448;51.298;6.430;2023-06-04T14:06:37;25.60;60.70
35970;DHT22;22448;51.298;6.430;2023-06-04T14:09:04;25.30;59.80
35970;DHT22;22448;51.298;6.430;2023-06-04T14:11:38;25.20;60.00
35970;DHT22;22448;51.298;6.430;2023-06-04T14:14:06;25.10;59.70
35970;DHT22;22448;51.298;6.430;2023-06-04T14:16:33;25.20;59.20
35970;DHT22;22448;51.298;6.430;2023-06-04T14:19:00;25.40;59.60
35970;DHT22;22448;51.298;6.430;2023-06-04T14:21:27;25.50;58.50
35970;DHT22;22448;51.298;6.430;2023-06-04T14:23:54;25.60;58.70
35970;DHT22;22448;51.298;6.430;2023-06-04T14:26:21;25.40;60.40
35970;DHT22;22448;51.298;6.430;2023-06-04T14:28:49;25.30;60.10
35970;DHT22;22448;51.298;6.430;2023-06-04T14:31:16;25.20;60.70
35970;DHT22;22448;51.298;6.430;2023-06-04T14:33:43;25.10;61.00
35970;DHT22;22448;51.298;6.430;2023-06-04T14:36:10;25.00;60.10
35970;DHT22;22448;51.298;6.430;2023-06-04T14:38:37;25.00;61.40
35970;DHT22;22448;51.298;6.430;2023-06-04T14:41:04;25.10;60.80
35970;DHT22;22448;51.298;6.430;2023-06-04T14:43:31;25.20;60.40
35970;DHT22;22448;51.298;6.430;2023-06-04T14:45:58;25.10;59.60
35970;DHT22;22448;51.298;6.430;2023-06-04T14:48:25;25.10;60.40
35970;DHT22;22448;51.298;6.430;2023-06-04T14:50:52;25.20;59.10
35970;DHT22;22448;51.298;6.430;2023-06-04T14:53:22;25.40;59.70
35970;DHT22;22448;51.298;6.430;2023-06-04T14:55:49;25.40;59.40
35970;DHT22;22448;51.298;6.430;2023-06-04T14:58:18;25.30;60.00
35970;DHT22;22448;51.298;6.430;2023-06-04T15:00:45;25.30;60.10
35970;DHT22;22448;51.298;6.430;2023-06-04T15:03:12;25.20;60.50
35970;DHT22;22448;51.298;6.430;2023-06-04T15:05:40;25.10;59.80
35970;DHT22;22448;51.298;6.430;2023-06-04T15:08:07;25.10;60.00
35970;DHT22;22448;51.298;6.430;2023-06-04T15:10:34;25.10;60.20
35970;DHT22;22448;51.298;6.430;2023-06-04T15:13:01;25.10;59.60
35970;DHT22;22448;51.298;6.430;2023-06-04T15:15:28;24.90;57.90
35970;DHT22;22448;51.298;6.430;2023-06-04T15:17:54;24.90;58.30
35970;DHT22;22448;51.298;6.430;2023-06-04T15:20:22;24.90;59.60
35970;DHT22;22448;51.298;6.430;2023-06-04T15:22:51;24.80;59.50
35970;DHT22;22448;51.298;6.430;2023-06-04T15:25:19;24.70;59.90
35970;DHT22;22448;51.298;6.430;2023-06-04T15:27:46;24.70;60.10
35970;DHT22;22448;51.298;6.430;2023-06-04T15:30:13;24.60;60.30
35970;DHT22;22448;51.298;6.430;2023-06-04T15:32:40;24.80;60.20
35970;DHT22;22448;51.298;6.430;2023-06-04T15:35:09;24.70;60.60
35970;DHT22;22448;51.298;6.430;2023-06-04T15:37:37;24.70;60.90
35970;DHT22;22448;51.298;6.430;2023-06-04T15:40:05;24.70;60.70
35970;DHT22;22448;51.298;6.430;2023-06-04T15:42:34;24.60;60.90
35970;DHT22;22448;51.298;6.430;2023-06-04T15:45:01;24.60;60.40
35970;DHT22;22448;51.298;6.430;2023-06-04T15:47:28;24.50;60.40
35970;DHT22;22448;51.298;6.430;2023-06-04T15:49:55;24.40;60.60